Time;durP1;ratioP1;P1;durP2;ratioP2;P2;SDS_P1;SDS_P2;PMS_P1;PMS_P2;Temp;Humidity;BMP_temperature;BMP_pressure;BME280_temperature;BME280_humidity;BME280_pressure;Samples;Min_cycle;Max_cycle;Signal;HPM_P1;HPM_P2
2023/04/27 00:00:22;;;;;;;8.65;3.58;;;3.30;99.90;;;;;;5047550;28;20376;-90
2023/04/27 00:02:50;;;;;;;9.35;3.72;;;3.20;99.90;;;;;;5055584;28;20020;-90
2023/04/27 00:05:16;;;;;;;11.88;4.60;;;3.30;99.90;;;;;;5056442;28;20024;-90
2023/04/27 00:07:41;;;;;;;15.00;6.32;;;3.20;99.90;;;;;;5056149;28;20032;-91
2023/04/27 00:10:08;;;;;;;7.03;3.95;;;3.30;99.90;;;;;;5055644;28;20047;-90
2023/04/27 00:12:33;;;;;;;8.35;3.63;;;3.30;99.90;;;;;;5053078;28;20035;-90
2023/04/27 00:14:59;;;;;;;12.57;3.95;;;3.40;99.90;;;;;;5053978;28;20038;-90
2023/04/27 00:17:25;;;;;;;9.60;4.30;;;3.40;99.90;;;;;;5055369;28;20119;-90
2023/04/27 00:19:51;;;;;;;8.82;3.88;;;3.40;99.90;;;;;;5055911;28;20098;-90
2023/04/27 00:22:17;;;;;;;10.93;3.58;;;3.40;99.90;;;;;;5073414;28;20024;-90
2023/04/27 00:24:42;;;;;;;14.20;4.32;;;3.40;99.90;;;;;;5056115;28;20384;-90
2023/04/27 00:27:08;;;;;;;16.85;4.38;;;3.30;99.90;;;;;;5053026;28;20029;-89
2023/04/27 00:29:43;;;;;;;6.88;3.58;;;3.20;99.90;;;;;;5058174;28;20045;-90
2023/04/27 00:32:09;;;;;;;11.52;3.25;;;3.20;99.90;;;;;;5055402;28;20038;-91
2023/04/27 00:34:35;;;;;;;11.35;3.97;;;3.20;99.90;;;;;;5052532;28;20036;-90
2023/04/27 00:37:01;;;;;;;11.02;4.15;;;3.20;99.90;;;;;;5053041;28;20043;-90
2023/04/27 00:39:27;;;;;;;12.90;4.03;;;3.10;99.90;;;;;;5046699;28;20035;-90
2023/04/27 00:41:53;;;;;;;14.20;4.80;;;3.10;99.90;;;;;;5070607;28;20024;-89
2023/04/27 00:44:26;;;;;;;11.27;3.50;;;3.00;99.90;;;;;;5046548;28;20040;-90
2023/04/27 00:46:52;;;;;;;8.90;3.78;;;2.90;99.90;;;;;;5054700;28;20051;-90
2023/04/27 00:49:19;;;;;;;11.73;3.63;;;2.90;99.90;;;;;;5051147;28;20048;-90
2023/04/27 00:51:46;;;;;;;9.73;3.85;;;3.00;99.90;;;;;;5054909;28;20108;-89
2023/04/27 00:54:14;;;;;;;12.95;3.97;;;3.00;99.90;;;;;;5055584;28;20430;-90
2023/04/27 00:56:40;;;;;;;10.48;3.65;;;3.10;99.90;;;;;;5071301;28;20033;-91
2023/04/27 00:59:16;;;;;;;18.77;4.30;;;3.20;99.90;;;;;;5055058;28;20028;-90
2023/04/27 01:01:47;;;;;;;8.77;3.67;;;3.30;99.90;;;;;;5043163;28;20031;-89
2023/04/27 01:04:13;;;;;;;12.90;4.32;;;3.40;99.90;;;;;;5052710;28;20025;-90
2023/04/27 01:06:39;;;;;;;11.27;3.15;;;3.50;99.90;;;;;;5051506;28;20029;-90
2023/04/27 01:09:05;;;;;;;9.48;4.03;;;3.50;99.90;;;;;;5049384;28;20371;-90
2023/04/27 01:11:37;;;;;;;9.30;3.30;;;3.60;99.90;;;;;;5045505;28;20503;-90
2023/04/27 01:14:05;;;;;;;7.75;3.47;;;3.60;99.90;;;;;;5052207;28;20075;-90
2023/04/27 01:16:32;;;;;;;6.53;3.40;;;3.80;99.90;;;;;;5054819;28;20071;-90
2023/04/27 01:18:58;;;;;;;9.50;3.25;;;3.80;99.90;;;;;;5053825;28;20502;-90
2023/04/27 01:21:25;;;;;;;7.60;3.00;;;3.80;99.90;;;;;;5045439;28;20111;-89
2023/04/27 01:23:51;;;;;;;13.18;3.33;;;3.80;99.90;;;;;;5054785;28;20035;-90
2023/04/27 01:26:16;;;;;;;11.88;3.38;;;3.90;99.90;;;;;;5057355;28;20059;-89
2023/04/27 01:28:42;;;;;;;6.32;3.63;;;3.90;99.90;;;;;;5058226;28;20024;-90
2023/04/27 01:31:13;;;;;;;9.82;3.20;;;3.90;99.90;;;;;;5058550;28;20395;-90
2023/04/27 01:33:54;;;;;;;10.70;3.10;;;3.90;99.90;;;;;;5058467;28;20035;-90
2023/04/27 01:36:20;;;;;;;14.63;3.67;;;3.80;99.90;;;;;;5073784;28;20541;-90
2023/04/27 01:39:11;;;;;;;10.93;3.50;;;3.80;99.90;;;;;;5047854;28;20020;-89
2023/04/27 01:41:39;;;;;;;13.82;3.92;;;3.80;99.90;;;;;;5069448;28;20020;-90
2023/04/27 01:44:05;;;;;;;7.38;2.95;;;3.80;99.90;;;;;;5057991;28;20391;-90
2023/04/27 01:46:31;;;;;;;10.93;3.85;;;3.70;99.90;;;;;;5054549;28;20035;-89
2023/04/27 01:48:57;;;;;;;10.93;3.30;;;3.70;99.90;;;;;;5051679;28;20021;-90
2023/04/27 01:51:23;;;;;;;11.85;3.60;;;3.60;99.90;;;;;;5072408;28;20055;-89
2023/04/27 01:53:49;;;;;;;8.38;3.65;;;3.60;99.90;;;;;;5054405;28;20653;-90
2023/04/27 01:56:15;;;;;;;7.72;3.88;;;3.50;99.90;;;;;;5071828;28;20100;-90
2023/04/27 01:58:41;;;;;;;9.98;3.53;;;3.40;99.90;;;;;;5054841;28;20120;-90
2023/04/27 02:01:22;;;;;;;10.38;3.33;;;3.40;99.90;;;;;;5057779;28;20020;-89
2023/04/27 02:03:48;;;;;;;13.32;3.67;;;3.30;99.90;;;;;;5058672;28;20051;-90
2023/04/27 02:06:14;;;;;;;6.30;3.58;;;3.20;99.90;;;;;;5056975;28;21110;-90
2023/04/27 02:08:39;;;;;;;7.43;3.90;;;3.10;99.90;;;;;;5057746;28;20422;-89
2023/04/27 02:11:07;;;;;;;8.20;3.38;;;3.10;99.90;;;;;;5057831;28;20012;-89
2023/04/27 02:13:33;;;;;;;10.13;3.55;;;3.00;99.90;;;;;;5057548;28;20434;-88
2023/04/27 02:16:02;;;;;;;7.32;3.88;;;2.80;99.90;;;;;;5056408;28;20047;-89
2023/04/27 02:18:27;;;;;;;6.18;3.45;;;2.70;99.90;;;;;;5057948;28;20037;-89
2023/04/27 02:20:53;;;;;;;10.70;4.20;;;2.60;99.90;;;;;;5059188;28;20032;-89
2023/04/27 02:23:19;;;;;;;8.35;3.45;;;2.60;99.90;;;;;;5057599;28;20085;-90
2023/04/27 02:25:45;;;;;;;9.20;3.75;;;2.50;99.90;;;;;;5052899;28;20029;-90
2023/04/27 02:28:14;;;;;;;9.93;4.22;;;2.40;99.90;;;;;;5056724;28;20158;-90
2023/04/27 02:30:40;;;;;;;13.85;4.28;;;2.30;99.90;;;;;;5058270;28;20036;-90
2023/04/27 02:33:06;;;;;;;12.57;3.88;;;2.20;99.90;;;;;;5056326;28;20035;-90
2023/04/27 02:35:32;;;;;;;10.93;4.22;;;2.10;99.90;;;;;;5052914;28;20036;-89
2023/04/27 02:37:59;;;;;;;12.23;4.20;;;2.00;99.90;;;;;;5049863;28;20039;-89
2023/04/27 02:40:25;;;;;;;9.93;4.60;;;2.00;99.90;;;;;;5048683;28;20024;-90
2023/04/27 02:42:50;;;;;;;9.77;4.82;;;1.90;99.90;;;;;;5056001;28;20499;-90
2023/04/27 02:45:16;;;;;;;15.48;4.78;;;2.00;99.90;;;;;;5055791;28;20031;-90
2023/04/27 02:47:42;;;;;;;11.45;5.32;;;2.00;99.90;;;;;;5056106;28;20036;-89
2023/04/27 02:50:08;;;;;;;16.42;6.20;;;2.10;99.90;;;;;;5070007;28;20084;-90
2023/04/27 02:52:35;;;;;;;11.18;4.88;;;2.20;99.90;;;;;;5066611;28;20033;-89
2023/04/27 02:55:00;;;;;;;10.40;4.95;;;2.30;99.90;;;;;;5049415;28;20032;-89
2023/04/27 02:57:27;;;;;;;13.45;6.05;;;2.40;99.90;;;;;;5044465;28;20056;-90
2023/04/27 02:59:53;;;;;;;9.38;5.13;;;2.60;99.90;;;;;;5052752;28;20107;-90
2023/04/27 03:02:18;;;;;;;11.50;5.65;;;2.70;99.90;;;;;;5061677;28;20052;-89
2023/04/27 03:04:44;;;;;;;10.45;5.65;;;2.80;99.90;;;;;;5051039;28;20057;-90
2023/04/27 03:07:11;;;;;;;12.45;6.15;;;2.90;99.90;;;;;;5054397;28;20035;-88
2023/04/27 03:09:37;;;;;;;10.43;6.65;;;3.10;99.90;;;;;;5050163;28;20395;-89
2023/04/27 03:12:03;;;;;;;12.13;6.75;;;3.20;99.90;;;;;;5072155;28;20044;-90
2023/04/27 03:14:29;;;;;;;16.75;7.40;;;3.30;99.90;;;;;;5056053;28;20063;-91
2023/04/27 03:16:56;;;;;;;17.40;6.70;;;3.40;99.90;;;;;;5056594;28;20059;-90
2023/04/27 03:19:22;;;;;;;14.90;6.03;;;3.50;99.90;;;;;;5069793;28;20029;-89
2023/04/27 03:21:49;;;;;;;13.65;5.43;;;3.70;99.90;;;;;;5049946;28;20025;-90
2023/04/27 03:24:16;;;;;;;14.52;5.72;;;3.90;99.90;;;;;;5070659;28;20024;-89
2023/04/27 03:26:41;;;;;;;14.98;5.20;;;4.00;99.90;;;;;;5049514;28;20115;-89
2023/04/27 03:29:07;;;;;;;20.73;9.65;;;4.10;99.90;;;;;;5053735;28;20111;-90
2023/04/27 03:31:33;;;;;;;17.13;8.35;;;4.20;99.90;;;;;;5055766;28;20424;-90
2023/04/27 03:33:58;;;;;;;13.38;6.68;;;4.30;99.90;;;;;;5052817;28;20025;-90
2023/04/27 03:36:25;;;;;;;13.13;5.75;;;4.40;99.90;;;;;;5050987;28;20721;-90
2023/04/27 03:38:51;;;;;;;13.63;6.63;;;4.60;99.90;;;;;;5061299;28;20024;-90
2023/04/27 03:41:17;;;;;;;12.13;6.43;;;4.60;99.90;;;;;;5047465;28;20383;-89
2023/04/27 03:43:42;;;;;;;17.83;8.38;;;4.70;99.90;;;;;;5050181;28;20104;-90
2023/04/27 03:46:08;;;;;;;14.20;7.10;;;4.80;99.90;;;;;;5055012;28;20065;-89
2023/04/27 03:48:34;;;;;;;18.25;7.68;;;4.90;99.90;;;;;;5045666;28;20078;-91
2023/04/27 03:51:00;;;;;;;15.10;7.13;;;4.90;99.90;;;;;;5062339;28;20078;-90
2023/04/27 03:53:26;;;;;;;17.60;6.88;;;5.00;99.90;;;;;;5055551;28;20024;-90
2023/04/27 03:55:52;;;;;;;12.50;7.03;;;5.00;99.90;;;;;;5055245;28;20122;-90
2023/04/27 03:58:17;;;;;;;15.38;6.28;;;5.00;99.90;;;;;;5071436;28;20050;-90
2023/04/27 04:01:02;;;;;;;11.07;6.53;;;5.00;99.90;;;;;;5064563;28;20431;-90
2023/04/27 04:03:28;;;;;;;12.43;6.18;;;5.10;99.90;;;;;;5052539;28;20025;-90
2023/04/27 04:05:53;;;;;;;15.07;6.15;;;5.10;99.90;;;;;;5053254;28;20841;-90
2023/04/27 04:08:19;;;;;;;13.07;5.93;;;5.10;99.90;;;;;;5069028;28;20040;-90
2023/04/27 04:10:45;;;;;;;14.23;6.30;;;5.10;99.90;;;;;;5048133;28;20040;-90
2023/04/27 04:13:11;;;;;;;13.82;5.88;;;5.10;99.90;;;;;;5045204;28;20029;-89
2023/04/27 04:15:37;;;;;;;13.68;6.35;;;5.20;99.90;;;;;;5053821;28;20082;-89
2023/04/27 04:18:03;;;;;;;12.57;6.30;;;5.20;99.90;;;;;;5069914;28;20476;-89
2023/04/27 04:20:29;;;;;;;12.82;6.70;;;5.30;99.90;;;;;;5053698;28;20016;-88
2023/04/27 04:22:55;;;;;;;15.25;6.65;;;5.30;99.90;;;;;;5052094;28;20024;-88
2023/04/27 04:25:21;;;;;;;14.73;7.25;;;5.30;99.90;;;;;;5056364;28;20103;-88
2023/04/27 04:27:49;;;;;;;15.07;6.70;;;5.30;99.90;;;;;;5056655;28;20032;-88
2023/04/27 04:30:15;;;;;;;12.13;6.43;;;5.30;99.90;;;;;;5055035;28;20060;-88
2023/04/27 04:32:41;;;;;;;13.50;6.43;;;5.30;99.90;;;;;;5056828;28;20435;-89
2023/04/27 04:35:08;;;;;;;13.30;6.60;;;5.30;99.90;;;;;;5053942;28;20029;-89
2023/04/27 04:37:35;;;;;;;17.13;6.63;;;5.30;99.90;;;;;;5056115;28;20565;-89
2023/04/27 04:40:09;;;;;;;16.70;6.85;;;5.40;99.90;;;;;;5057387;28;20086;-89
2023/04/27 04:42:39;;;;;;;14.40;6.30;;;5.40;99.90;;;;;;5072597;28;20107;-89
2023/04/27 04:45:07;;;;;;;12.05;6.57;;;5.50;99.90;;;;;;5056144;28;20042;-88
2023/04/27 04:47:33;;;;;;;13.27;6.93;;;5.50;99.90;;;;;;5057965;28;20029;-88
2023/04/27 04:49:59;;;;;;;18.13;6.70;;;5.60;99.90;;;;;;5057249;28;20024;-88
2023/04/27 04:52:28;;;;;;;16.55;6.40;;;5.60;99.90;;;;;;5056139;28;20099;-88
2023/04/27 04:54:53;;;;;;;12.07;6.20;;;5.70;99.90;;;;;;5056643;28;20059;-89
2023/04/27 04:57:21;;;;;;;17.42;6.32;;;5.70;99.90;;;;;;5056830;28;20070;-88
2023/04/27 04:59:46;;;;;;;14.75;6.65;;;5.70;99.90;;;;;;5051741;28;20033;-89
2023/04/27 05:02:12;;;;;;;14.38;7.40;;;5.80;99.90;;;;;;5052394;28;20066;-89
2023/04/27 05:04:38;;;;;;;13.93;7.30;;;5.90;99.90;;;;;;5069503;28;20026;-89
2023/04/27 05:07:05;;;;;;;16.92;8.25;;;6.00;99.90;;;;;;5060442;28;20383;-89
2023/04/27 05:09:31;;;;;;;32.75;9.35;;;6.00;99.90;;;;;;5060142;28;20054;-89
2023/04/27 05:11:57;;;;;;;16.70;7.78;;;6.10;99.90;;;;;;5059927;28;20383;-88
2023/04/27 05:14:23;;;;;;;13.82;7.45;;;6.20;99.90;;;;;;5053963;28;20021;-89
2023/04/27 05:16:50;;;;;;;20.73;7.50;;;6.20;99.90;;;;;;5052436;28;20039;-88
2023/04/27 05:19:17;;;;;;;16.42;7.47;;;6.20;99.90;;;;;;5060299;28;20035;-89
2023/04/27 05:21:46;;;;;;;12.52;7.78;;;6.40;99.90;;;;;;5059731;28;20024;-88
2023/04/27 05:24:12;;;;;;;14.93;7.40;;;6.50;99.90;;;;;;5039947;28;20119;-89
2023/04/27 05:26:44;;;;;;;21.73;7.55;;;6.50;99.90;;;;;;5053092;28;20052;-88
2023/04/27 05:29:10;;;;;;;11.18;6.78;;;6.70;99.90;;;;;;5056767;28;20539;-88
2023/04/27 05:31:36;;;;;;;15.35;6.90;;;6.70;99.90;;;;;;5057970;28;20028;-89
2023/04/27 05:34:02;;;;;;;12.77;7.18;;;6.90;99.90;;;;;;5055228;28;20035;-89
2023/04/27 05:36:27;;;;;;;12.27;7.20;;;7.10;99.90;;;;;;5056906;28;20029;-89
2023/04/27 05:38:54;;;;;;;12.98;7.65;;;7.20;99.90;;;;;;5054871;28;20474;-89
2023/04/27 05:41:20;;;;;;;23.40;7.78;;;7.40;99.90;;;;;;5058082;28;20029;-88
2023/04/27 05:43:46;;;;;;;13.68;7.82;;;7.50;99.90;;;;;;5053565;28;20528;-89
2023/04/27 05:46:15;;;;;;;19.63;8.00;;;7.60;99.90;;;;;;5058368;28;20021;-89
2023/04/27 05:48:41;;;;;;;14.10;6.90;;;7.80;99.90;;;;;;5059504;28;20383;-89
2023/04/27 05:51:07;;;;;;;13.40;7.18;;;7.90;99.90;;;;;;5058898;28;20029;-88
2023/04/27 05:53:33;;;;;;;12.45;7.75;;;8.00;99.90;;;;;;5061353;28;20483;-88
2023/04/27 05:56:00;;;;;;;18.52;7.35;;;8.10;99.90;;;;;;5055372;28;20396;-88
2023/04/27 05:58:26;;;;;;;13.27;6.80;;;8.30;99.90;;;;;;5049623;28;20399;-88
2023/04/27 06:00:53;;;;;;;15.95;6.47;;;8.40;99.90;;;;;;5047909;28;20028;-89
2023/04/27 06:03:19;;;;;;;12.43;5.88;;;8.60;99.90;;;;;;5056024;28;20115;-88
2023/04/27 06:05:45;;;;;;;15.07;6.32;;;8.80;99.90;;;;;;5058847;28;20483;-88
2023/04/27 06:08:11;;;;;;;15.60;7.40;;;9.00;99.90;;;;;;5053083;28;20028;-88
2023/04/27 06:10:38;;;;;;;11.30;6.72;;;9.10;99.90;;;;;;5068798;28;20033;-88
2023/04/27 06:13:04;;;;;;;16.45;7.32;;;9.20;99.90;;;;;;5067464;28;20028;-88
2023/04/27 06:15:30;;;;;;;15.65;6.88;;;9.30;99.90;;;;;;5049826;28;20057;-87
2023/04/27 06:17:56;;;;;;;14.73;7.07;;;9.30;99.90;;;;;;5056743;28;20035;-87
2023/04/27 06:20:22;;;;;;;14.23;6.90;;;9.40;99.90;;;;;;5053410;28;20028;-88
2023/04/27 06:22:48;;;;;;;19.75;7.60;;;9.40;99.90;;;;;;5053151;28;20031;-88
2023/04/27 06:25:14;;;;;;;14.68;7.28;;;9.50;99.90;;;;;;5044817;28;20389;-87
2023/04/27 06:27:40;;;;;;;20.60;7.85;;;9.60;99.90;;;;;;5058627;28;20468;-88
2023/04/27 06:30:06;;;;;;;19.45;8.23;;;9.60;99.90;;;;;;5052146;28;20029;-88
2023/04/27 06:32:32;;;;;;;21.15;8.15;;;9.60;99.90;;;;;;5047360;28;20468;-89
2023/04/27 06:34:58;;;;;;;32.30;8.27;;;9.50;99.90;;;;;;5056105;28;20031;-88
2023/04/27 06:37:24;;;;;;;30.20;7.85;;;9.50;99.90;;;;;;5043313;28;20481;-89
2023/04/27 06:39:51;;;;;;;13.35;7.47;;;9.40;99.90;;;;;;5055936;28;20442;-88
2023/04/27 06:42:18;;;;;;;20.02;7.97;;;9.70;99.90;;;;;;5069283;28;20031;-88
2023/04/27 06:44:55;;;;;;;13.40;6.47;;;10.00;99.90;;;;;;5052623;28;20471;-88
2023/04/27 06:47:24;;;;;;;15.20;6.57;;;10.30;99.90;;;;;;5067237;28;20072;-89
2023/04/27 06:50:16;;;;;;;12.48;7.05;;;10.70;99.90;;;;;;5070835;28;20029;-88
2023/04/27 06:52:42;;;;;;;15.02;6.63;;;10.80;99.90;;;;;;5067310;28;20032;-89
2023/04/27 06:55:08;;;;;;;12.82;6.95;;;11.00;99.90;;;;;;5050621;28;20547;-89
2023/04/27 06:57:35;;;;;;;16.08;6.55;;;11.10;99.90;;;;;;5040701;28;20128;-89
2023/04/27 07:00:02;;;;;;;13.95;6.40;;;11.40;99.90;;;;;;5054704;28;20040;-89
2023/04/27 07:02:28;;;;;;;14.90;7.10;;;11.60;99.90;;;;;;5052809;28;20028;-89
2023/04/27 07:04:54;;;;;;;13.77;6.10;;;11.60;99.90;;;;;;5047360;28;20402;-89
2023/04/27 07:07:20;;;;;;;16.92;8.18;;;11.50;99.90;;;;;;5047991;28;20056;-88
2023/04/27 07:09:46;;;;;;;14.18;6.32;;;11.40;99.90;;;;;;5053375;28;20031;-89
2023/04/27 07:12:12;;;;;;;18.13;6.85;;;11.50;99.90;;;;;;5055425;28;20089;-88
2023/04/27 07:14:38;;;;;;;11.07;6.45;;;11.50;99.90;;;;;;5048103;28;20025;-89
2023/04/27 07:17:04;;;;;;;13.63;6.65;;;11.40;99.90;;;;;;5047564;28;20380;-88
2023/04/27 07:19:29;;;;;;;11.48;6.50;;;11.30;99.90;;;;;;5054909;28;20021;-88
2023/04/27 07:21:56;;;;;;;17.65;7.15;;;11.30;99.90;;;;;;5052499;28;20025;-89
2023/04/27 07:24:25;;;;;;;16.90;7.20;;;11.30;99.90;;;;;;5050569;28;20033;-89
2023/04/27 07:26:56;;;;;;;16.05;6.95;;;11.40;99.90;;;;;;5051160;28;20487;-89
2023/04/27 07:29:27;;;;;;;13.60;6.85;;;11.80;99.90;;;;;;5051900;28;20111;-88
2023/04/27 07:31:55;;;;;;;13.52;5.97;;;12.00;99.90;;;;;;5045211;28;20107;-89
2023/04/27 07:34:21;;;;;;;20.52;6.72;;;12.10;99.90;;;;;;5052405;28;20079;-89
2023/04/27 07:36:47;;;;;;;11.73;5.90;;;12.10;99.90;;;;;;5054759;28;20029;-88
2023/04/27 07:39:14;;;;;;;18.95;7.18;;;12.10;99.90;;;;;;5040568;28;20526;-89
2023/04/27 07:41:40;;;;;;;15.75;5.63;;;12.00;99.90;;;;;;5050800;28;20029;-89
2023/04/27 07:44:05;;;;;;;9.15;5.22;;;12.20;99.90;;;;;;5051836;28;20017;-89
2023/04/27 07:46:31;;;;;;;13.73;6.75;;;12.10;99.90;;;;;;5038536;28;20032;-89
2023/04/27 07:48:59;;;;;;;9.45;5.60;;;11.80;99.90;;;;;;5047155;28;20032;-89
2023/04/27 07:51:27;;;;;;;11.60;5.93;;;11.80;99.90;;;;;;5049397;28;20131;-90
2023/04/27 07:53:53;;;;;;;14.35;5.63;;;11.80;99.90;;;;;;5052489;28;20380;-89
2023/04/27 07:56:20;;;;;;;13.02;5.80;;;11.70;99.90;;;;;;5048869;28;20037;-89
2023/04/27 07:58:46;;;;;;;9.95;5.38;;;11.70;99.90;;;;;;5049084;28;20400;-88
2023/04/27 08:01:11;;;;;;;13.35;5.88;;;11.50;99.90;;;;;;5045424;28;20024;-88
2023/04/27 08:03:37;;;;;;;12.23;6.10;;;11.50;99.90;;;;;;5050131;28;20024;-88
2023/04/27 08:06:03;;;;;;;13.05;6.00;;;11.50;99.90;;;;;;5056496;28;20035;-89
2023/04/27 08:08:29;;;;;;;14.68;5.80;;;11.40;99.90;;;;;;5054939;28;20028;-90
2023/04/27 08:10:55;;;;;;;13.57;6.70;;;11.30;99.90;;;;;;5056511;28;20029;-89
2023/04/27 08:13:21;;;;;;;10.55;5.95;;;11.20;99.90;;;;;;5055897;28;20048;-90
2023/04/27 08:15:46;;;;;;;9.77;5.10;;;11.20;99.90;;;;;;5053483;28;20098;-88
2023/04/27 08:18:12;;;;;;;14.80;6.10;;;11.20;99.90;;;;;;5056516;28;20037;-89
2023/04/27 08:20:38;;;;;;;16.50;5.95;;;11.10;99.90;;;;;;5052923;28;20783;-89
2023/04/27 08:23:03;;;;;;;12.93;5.93;;;11.00;99.90;;;;;;5059375;28;20036;-90
2023/04/27 08:25:29;;;;;;;18.30;6.65;;;11.00;99.90;;;;;;5054261;28;20036;-89
2023/04/27 08:27:55;;;;;;;11.60;6.25;;;10.90;99.90;;;;;;5046486;28;20036;-89
2023/04/27 08:30:20;;;;;;;14.65;6.50;;;11.00;99.90;;;;;;5055630;28;20067;-89
2023/04/27 08:32:46;;;;;;;15.40;6.40;;;11.10;99.90;;;;;;5052333;28;20533;-91
2023/04/27 08:35:13;;;;;;;15.77;6.38;;;11.20;99.90;;;;;;5056257;28;20547;-91
2023/04/27 08:37:39;;;;;;;10.30;5.82;;;11.30;99.90;;;;;;5059599;28;20170;-91
2023/04/27 08:40:06;;;;;;;10.60;5.32;;;11.50;99.90;;;;;;5060361;28;20104;-89
2023/04/27 08:42:32;;;;;;;17.00;6.13;;;11.70;99.90;;;;;;5060114;28;20069;-90
2023/04/27 08:44:58;;;;;;;12.40;5.13;;;12.60;99.90;;;;;;5055050;28;20021;-90
2023/04/27 08:47:24;;;;;;;11.23;6.35;;;13.50;96.50;;;;;;5056420;28;20029;-90
2023/04/27 08:49:50;;;;;;;7.10;4.13;;;14.40;92.90;;;;;;5059880;28;20025;-89
2023/04/27 08:52:16;;;;;;;10.30;4.90;;;14.60;91.30;;;;;;5056005;28;20029;-91
2023/04/27 08:54:42;;;;;;;11.95;5.05;;;14.90;91.40;;;;;;5060157;28;20414;-90
2023/04/27 08:57:12;;;;;;;10.93;4.70;;;15.40;91.60;;;;;;5068157;28;20036;-89
2023/04/27 08:59:44;;;;;;;13.05;5.07;;;15.40;90.20;;;;;;5051259;28;20094;-89
2023/04/27 09:02:19;;;;;;;8.85;3.75;;;15.90;87.20;;;;;;5056659;28;20028;-90
2023/04/27 09:04:45;;;;;;;9.45;4.28;;;16.40;83.10;;;;;;5064984;28;20025;-90
2023/04/27 09:07:20;;;;;;;10.57;4.97;;;16.40;80.20;;;;;;5056117;28;20364;-90
2023/04/27 09:09:49;;;;;;;11.02;5.00;;;16.20;80.00;;;;;;5059599;28;20025;-90
2023/04/27 09:12:24;;;;;;;7.63;4.60;;;15.70;82.70;;;;;;5052455;28;20028;-91
2023/04/27 09:15:05;;;;;;;12.77;4.47;;;15.40;80.10;;;;;;5068110;28;20028;-91
2023/04/27 09:17:32;;;;;;;9.70;4.35;;;16.10;85.70;;;;;;5052832;28;20365;-90
2023/04/27 09:20:12;;;;;;;10.10;5.10;;;16.50;80.10;;;;;;5052537;28;20035;-90
2023/04/27 09:22:56;;;;;;;7.95;4.43;;;16.80;79.90;;;;;;5055677;28;20025;-90
2023/04/27 09:25:27;;;;;;;12.05;4.60;;;18.20;81.50;;;;;;5068012;28;20644;-90
2023/04/27 09:27:57;;;;;;;9.65;5.10;;;19.50;75.60;;;;;;5048123;28;20032;-90
2023/04/27 09:30:24;;;;;;;13.18;4.70;;;19.00;72.60;;;;;;5058398;28;20036;-91
2023/04/27 09:32:52;;;;;;;10.40;4.47;;;18.10;71.90;;;;;;5049273;28;20048;-90
2023/04/27 09:35:26;;;;;;;9.90;4.65;;;18.00;74.30;;;;;;5049348;28;20060;-91
2023/04/27 09:37:53;;;;;;;8.40;4.68;;;18.80;73.10;;;;;;5060487;28;20399;-90
2023/04/27 09:40:22;;;;;;;12.90;5.15;;;19.00;70.70;;;;;;5072924;28;20029;-89
2023/04/27 09:42:48;;;;;;;11.57;4.65;;;18.60;70.70;;;;;;5053704;28;20020;-90
2023/04/27 09:45:16;;;;;;;8.18;4.70;;;18.30;69.10;;;;;;5052533;28;20053;-90
2023/04/27 09:47:42;;;;;;;9.48;3.92;;;18.40;70.40;;;;;;5054914;28;20028;-90
2023/04/27 09:50:11;;;;;;;10.52;4.65;;;18.70;70.50;;;;;;5059603;28;20120;-90
2023/04/27 09:52:37;;;;;;;10.75;3.97;;;19.10;68.20;;;;;;5054317;28;20040;-90
2023/04/27 09:55:07;;;;;;;6.35;3.50;;;18.80;69.00;;;;;;5055837;28;20029;-89
2023/04/27 09:57:51;;;;;;;8.98;4.57;;;18.00;69.70;;;;;;5054899;28;20033;-90
2023/04/27 10:00:23;;;;;;;7.25;4.07;;;17.10;70.30;;;;;;5070495;28;20032;-90
2023/04/27 10:03:01;;;;;;;9.75;4.35;;;17.30;73.00;;;;;;5072252;28;20028;-90
2023/04/27 10:05:41;;;;;;;6.75;3.83;;;17.00;71.80;;;;;;5056256;28;20021;-90
2023/04/27 10:08:10;;;;;;;13.40;4.68;;;17.00;70.70;;;;;;5052032;28;20495;-90
2023/04/27 10:10:47;;;;;;;18.40;4.70;;;17.20;69.70;;;;;;5055707;28;20036;-92
2023/04/27 10:13:21;;;;;;;12.40;3.83;;;18.30;70.20;;;;;;5072882;28;20505;-90
2023/04/27 10:15:47;;;;;;;8.43;4.28;;;19.40;69.10;;;;;;5053741;28;20131;-90
2023/04/27 10:18:25;;;;;;;7.40;4.00;;;18.30;67.50;;;;;;5047383;28;20083;-90
2023/04/27 10:20:51;;;;;;;10.13;4.60;;;17.70;72.30;;;;;;5042849;28;20033;-90
2023/04/27 10:23:27;;;;;;;8.80;4.22;;;18.00;71.20;;;;;;5053861;28;20016;-90
2023/04/27 10:25:54;;;;;;;9.93;3.95;;;18.50;70.20;;;;;;5073407;28;20412;-91
2023/04/27 10:28:20;;;;;;;9.40;3.90;;;17.90;68.20;;;;;;5055161;28;20021;-90
2023/04/27 10:30:47;;;;;;;10.70;4.32;;;17.70;68.20;;;;;;5057552;28;20078;-90
2023/04/27 10:33:21;;;;;;;10.52;4.65;;;17.60;71.60;;;;;;5057966;28;20047;-90
2023/04/27 10:35:56;;;;;;;9.85;4.05;;;17.10;69.90;;;;;;5071136;28;20025;-90
2023/04/27 10:38:28;;;;;;;12.60;4.88;;;16.40;69.50;;;;;;5052043;28;20032;-91
2023/04/27 10:40:54;;;;;;;14.63;3.90;;;17.30;70.00;;;;;;5046158;28;20404;-90
2023/04/27 10:43:25;;;;;;;8.45;4.13;;;18.00;68.70;;;;;;5062817;28;20032;-90
2023/04/27 10:45:51;;;;;;;9.90;5.10;;;18.50;68.00;;;;;;5071376;28;20025;-90
2023/04/27 10:48:17;;;;;;;11.23;3.85;;;18.80;66.30;;;;;;5050957;28;20032;-91
2023/04/27 10:50:43;;;;;;;8.93;4.28;;;17.90;65.30;;;;;;5057265;28;20047;-90
2023/04/27 10:53:09;;;;;;;15.27;4.68;;;17.60;66.60;;;;;;5056497;28;20033;-91
2023/04/27 10:55:35;;;;;;;8.15;4.60;;;17.20;68.30;;;;;;5055567;28;20044;-90
2023/04/27 10:58:02;;;;;;;12.55;5.25;;;17.00;69.80;;;;;;5054290;28;20138;-90
2023/04/27 11:00:38;;;;;;;11.00;5.28;;;17.10;72.00;;;;;;5054392;28;20572;-90
2023/04/27 11:03:16;;;;;;;10.23;4.45;;;17.30;70.10;;;;;;5055322;28;20096;-90
2023/04/27 11:05:43;;;;;;;8.45;3.58;;;17.20;71.00;;;;;;5063763;28;20077;-90
2023/04/27 11:08:25;;;;;;;8.18;3.80;;;17.10;66.10;;;;;;5056899;28;20036;-90
2023/04/27 11:10:51;;;;;;;9.43;4.28;;;17.10;65.90;;;;;;5073197;28;20035;-90
2023/04/27 11:13:22;;;;;;;9.07;4.25;;;18.00;67.40;;;;;;5054524;28;20040;-90
2023/04/27 11:15:59;;;;;;;5.40;2.83;;;18.30;62.60;;;;;;5056648;28;20025;-91
2023/04/27 11:18:30;;;;;;;9.43;3.53;;;17.60;60.50;;;;;;5073563;28;20040;-91
2023/04/27 11:21:06;;;;;;;13.43;4.18;;;17.40;60.60;;;;;;5066081;28;20479;-90
2023/04/27 11:23:38;;;;;;;10.45;3.95;;;17.80;64.20;;;;;;5057224;28;20029;-90
2023/04/27 11:26:33;;;;;;;10.93;4.05;;;18.60;61.30;;;;;;5073541;28;20033;-91
2023/04/27 11:29:04;;;;;;;8.32;4.32;;;19.20;63.00;;;;;;5056409;28;20036;-90
2023/04/27 11:31:47;;;;;;;11.27;3.10;;;19.90;62.80;;;;;;5065348;28;20040;-89
2023/04/27 11:34:25;;;;;;;7.93;3.28;;;20.70;60.80;;;;;;5062282;28;20282;-91
2023/04/27 11:37:05;;;;;;;7.85;4.03;;;21.60;58.20;;;;;;5064865;28;20028;-92
2023/04/27 11:39:38;;;;;;;9.70;3.33;;;22.10;53.80;;;;;;5056535;28;20055;-91
2023/04/27 11:42:14;;;;;;;7.63;4.07;;;22.80;52.10;;;;;;5050181;28;20024;-90
2023/04/27 11:44:40;;;;;;;10.55;4.75;;;22.10;53.10;;;;;;5055067;28;20044;-91
2023/04/27 11:47:06;;;;;;;7.97;4.28;;;21.00;55.50;;;;;;5051039;28;20020;-90
2023/04/27 11:49:32;;;;;;;7.43;3.70;;;19.80;56.00;;;;;;5055129;28;20028;-91
2023/04/27 11:51:58;;;;;;;11.95;5.40;;;18.90;58.70;;;;;;5048335;28;20021;-91
2023/04/27 11:54:28;;;;;;;16.38;4.35;;;18.50;59.80;;;;;;5048808;28;20033;-91
2023/04/27 11:57:04;;;;;;;13.07;4.65;;;19.20;60.80;;;;;;5065049;28;20895;-90
2023/04/27 11:59:30;;;;;;;7.35;4.47;;;20.20;60.10;;;;;;5053149;28;20043;-91
2023/04/27 12:01:56;;;;;;;8.63;4.50;;;20.30;61.70;;;;;;5056145;28;20403;-89
2023/04/27 12:04:22;;;;;;;11.50;4.63;;;20.90;59.00;;;;;;5053040;28;20508;-90
2023/04/27 12:07:06;;;;;;;6.95;3.75;;;20.60;58.00;;;;;;5055491;28;20032;-91
2023/04/27 12:09:31;;;;;;;6.47;3.75;;;20.60;56.20;;;;;;5056734;28;20056;-90
2023/04/27 12:11:57;;;;;;;10.75;4.22;;;20.60;57.90;;;;;;5049573;28;20356;-88
2023/04/27 12:14:23;;;;;;;11.85;4.95;;;20.10;57.00;;;;;;5056760;28;20035;-90
2023/04/27 12:16:49;;;;;;;13.25;4.82;;;19.90;58.20;;;;;;5057725;28;20036;-91
2023/04/27 12:19:16;;;;;;;19.48;5.10;;;20.50;61.10;;;;;;5055743;28;20070;-91
2023/04/27 12:21:42;;;;;;;12.05;4.00;;;20.20;58.60;;;;;;5069981;28;20028;-90
2023/04/27 12:24:08;;;;;;;7.93;3.80;;;19.60;59.00;;;;;;5057497;28;20025;-90
2023/04/27 12:26:34;;;;;;;9.05;3.63;;;19.40;58.10;;;;;;5055625;28;20127;-90
2023/04/27 12:29:01;;;;;;;6.22;3.80;;;19.00;59.60;;;;;;5055261;28;20029;-89
2023/04/27 12:31:27;;;;;;;8.05;4.32;;;18.50;60.40;;;;;;5056369;28;20487;-90
2023/04/27 12:33:53;;;;;;;10.07;4.30;;;18.10;61.20;;;;;;5052735;28;20033;-90
2023/04/27 12:36:18;;;;;;;7.32;4.43;;;18.10;62.20;;;;;;5049010;28;20045;-89
2023/04/27 12:38:44;;;;;;;11.57;4.10;;;17.30;63.00;;;;;;5054121;28;20369;-90
2023/04/27 12:41:10;;;;;;;12.02;3.97;;;17.60;62.80;;;;;;5049957;28;20787;-90
2023/04/27 12:43:37;;;;;;;8.52;4.45;;;18.00;62.40;;;;;;5055538;28;20418;-90
2023/04/27 12:46:03;;;;;;;6.47;4.05;;;18.30;61.90;;;;;;5056959;28;20479;-90
2023/04/27 12:48:28;;;;;;;6.43;4.18;;;18.60;60.50;;;;;;5056678;28;20032;-89